Prescott, AZ (86301)

8:23 PM MST on April 28, 2017 (GMT -0700)
Taylor Hicks | | Change Station
Active Advisory: High Wind Advisory

Elev 5591 ft 34.57 °N, 112.48 °W | Updated 7 minutes ago

Clear
Clear
43.8 °F
Feels Like 42 °F
N
4.1
Wind Variable Wind from NNW
Gusts 11.0 mph

Today
High -- | Low -- °F
--% Chance of Precip.
Yesterday
High -- | Low -- °F
Precip. -- in
Pressure 29.73 in
Visibility 10.0 miles
Clouds Clear
Windchill 42 °F
Dew Point 14 °F
Humidity 29%
Rainfall 0.00 in
Snow Depth Not available.
5:42 AM 7:12 PM
Waxing Crescent, 10% visible
METAR KPRC 290253Z 34012KT 10SM CLR 08/M12 A2985 RMK AO2 SLP066 T00831117 53026
Pressure 29.73 in
Visibility 10.0 miles
Clouds Clear
Windchill 42 °F
Dew Point 14 °F
Humidity 29%
Rainfall 0.00 in
Snow Depth Not available.
5:42 AM 7:12 PM
Waxing Crescent, 10% visible
METAR KPRC 290253Z 34012KT 10SM CLR 08/M12 A2985 RMK AO2 SLP066 T00831117 53026

Get Your Daily Forecast Email!

Thanks for signing up!

Be on the lookout for a verification email in your inbox.

You'll start receiving severe weather alerts in your inbox..

×

10-Day Weather Forecast

Almanac

Astronomy

Apr. 28, 2017 Rise Set
Actual Time
Civil Twilight
Nautical Twilight
Astronomical Twilight
Moon
Length of Visible Light
Length of Day
Tomorrow will be .
, % of the Moon is Illuminated

Today's Extremes

State Highs State Lows

Community

WunderPhotos

WunderBlog® & News

Nearby

Air Quality

  Air Quality AQ Index Pollutant
Not available.

Snow Depth

Station Depth Elevation

Earthquake Activity

City Distance Mag. Time & Date
Minimum magnitude displayed is 2.5.

Coastal Water Temperatures

Place Temperature

Stations

Nearby Weather Stations

Station Location Temp. Windchill Dew Point Humidity Wind Precip. Elev Updated Type
                   

Watches & Warnings

High Wind Advisory
Issued: 8:19 PM MDT Apr. 28, 2017 – National Weather Service

... Wind Advisory has expired...

Todays Wind Advisory has expired.